Decoded Metar for WSSS (SINGAPORE in SINGAPORE) (IATA:SIN) | Meteo·Mobile Aviation Weather
aviador You're here:

WSSS Decoded Metar

SINGAPORE in SINGAPORE
Report Time2018-12-15 15:30:00
UTC Time2018-12-15 15:51:40
Flight Rules vfr VFR
WindVRB at 02 kt
Visibility9999 m
Phenomena:N/A
Clouds:Few 016 Hf
Scattered 060 Hf
Expected CloudBase > 1,200 ft AGL from Temp-Dew spread
CeilingNone
Temp26°C (ISA +11)
Dew Point23°C (84% RH)
QNH1013 hPa
Density Alt1,703 ft
Elevation52 ft
Report Wrong Elevation
Raw Report
METAR WSSS 151530Z VRB02KT 9999 FEW016 SCT060 26/23 Q1013 NOSIG=####018000210####
SPAU31 YBBN 151541

Extra information for WSSS:More info

Metar Taf Metar & Taf Last 4 Metars F.Rules Stats Wind Profile Meteogram Temp Stats Airport Information Weather charts Add Link Nearby VenuesMetar ALERT Operation Metar Decoded Social comments